Airport View

Enter AWOS ICAO identifier for current METAR.

ex. KFNL

KMBS 202353Z 00000KT 10SM BKN080 24/16 A3014 RMK AO2 SLP204 T02440161 10283 20239 53008

21 Sep 2019 00:25

Phone: 989-695-2488

Other Area AWOS: KIKW - KHYX - KCFS - KMOP

TAF KMBS 202323Z 2100/2124 18005KT P6SM SKC FM210800 18005KT P6SM BKN040 FM211300 20010KT P6SM SCT040 FM212200 23013KT P6SM VCSH BKN045 OVC100